createdAt,value
2018-06-23T00:02:00.764Z,99.90
2018-06-23T00:04:30.538Z,99.90
2018-06-23T00:07:00.227Z,99.90
2018-06-23T00:09:29.810Z,99.90
2018-06-23T00:11:59.084Z,99.90
2018-06-23T00:14:29.171Z,99.90
2018-06-23T00:16:58.888Z,99.90
2018-06-23T00:19:28.199Z,99.90
2018-06-23T00:21:58.384Z,99.90
2018-06-23T00:26:56.557Z,99.90
2018-06-23T00:29:26.979Z,99.90
2018-06-23T00:31:56.394Z,99.90
2018-06-23T00:34:25.702Z,99.90
2018-06-23T00:39:24.648Z,99.90
2018-06-23T00:41:53.927Z,99.90
2018-06-23T00:44:23.652Z,99.90
2018-06-23T00:46:52.942Z,99.90
2018-06-23T00:49:22.211Z,99.90
2018-06-23T00:51:52.070Z,99.90
2018-06-23T00:54:21.519Z,99.90
2018-06-23T00:56:50.843Z,99.90
2018-06-23T01:01:55.405Z,99.90
2018-06-23T01:06:53.574Z,99.90
2018-06-23T01:09:23.107Z,99.90
2018-06-23T01:11:53.135Z,99.90
2018-06-23T01:14:22.647Z,99.90
2018-06-23T01:16:51.964Z,99.90
2018-06-23T01:19:21.980Z,99.90
2018-06-23T01:21:51.166Z,99.90
2018-06-23T01:24:20.906Z,99.90
2018-06-23T01:26:51.013Z,99.90
2018-06-23T01:29:20.276Z,99.90
2018-06-23T01:31:49.552Z,99.90
2018-06-23T01:34:18.858Z,99.90
2018-06-23T01:36:48.373Z,99.90
2018-06-23T01:39:18.091Z,99.90
2018-06-23T01:41:47.382Z,99.90
2018-06-23T01:44:17.231Z,99.90
2018-06-23T01:46:46.539Z,99.90
2018-06-23T01:49:15.816Z,99.90
2018-06-23T01:51:45.124Z,99.90
2018-06-23T01:54:14.720Z,99.90
2018-06-23T01:56:43.964Z,99.90
2018-06-23T01:59:13.209Z,99.90
2018-06-23T02:01:42.489Z,99.90
2018-06-23T02:04:12.406Z,99.90
2018-06-23T02:06:41.691Z,99.90
2018-06-23T02:09:11.631Z,99.90
2018-06-23T02:11:40.927Z,99.90
2018-06-23T02:16:50.912Z,99.90
2018-06-23T02:19:25.626Z,99.90
2018-06-23T02:22:00.173Z,99.90
2018-06-23T02:24:35.394Z,99.90
2018-06-23T02:27:10.054Z,99.90
2018-06-23T02:29:44.987Z,99.90
2018-06-23T02:32:19.815Z,99.90
2018-06-23T02:34:54.732Z,99.90
2018-06-23T02:37:24.277Z,99.90
2018-06-23T02:39:54.225Z,99.90
2018-06-23T02:42:24.647Z,99.90
2018-06-23T02:45:03.716Z,99.90
2018-06-23T02:47:37.143Z,99.90
2018-06-23T02:50:07.327Z,99.90
2018-06-23T02:52:36.972Z,99.90
2018-06-23T02:55:06.261Z,99.90
2018-06-23T02:57:36.853Z,99.90
2018-06-23T03:00:17.622Z,99.90
2018-06-23T03:02:47.235Z,99.90
2018-06-23T03:05:27.524Z,99.90
2018-06-23T03:10:27.972Z,99.90
2018-06-23T03:12:58.399Z,99.90
2018-06-23T03:15:27.738Z,99.90
2018-06-23T03:18:20.500Z,99.90
2018-06-23T03:20:50.229Z,99.90
2018-06-23T03:23:20.081Z,99.90
2018-06-23T03:28:22.156Z,99.90
2018-06-23T03:30:55.840Z,99.90
2018-06-23T03:33:25.562Z,99.90
2018-06-23T03:35:55.839Z,99.90
2018-06-23T03:41:00.502Z,99.90
2018-06-23T03:43:30.859Z,99.90
2018-06-23T03:46:01.054Z,99.90
2018-06-23T03:48:30.896Z,99.90
2018-06-23T03:51:03.463Z,99.90
2018-06-23T03:53:36.127Z,99.90
2018-06-23T03:56:05.821Z,99.90
2018-06-23T03:58:35.212Z,99.90
2018-06-23T04:01:08.251Z,99.90
2018-06-23T04:03:40.045Z,99.90
2018-06-23T04:06:13.102Z,99.90
2018-06-23T04:08:45.648Z,99.90
2018-06-23T04:11:15.170Z,99.90
2018-06-23T04:13:45.165Z,99.90
2018-06-23T04:16:15.171Z,99.90
2018-06-23T04:19:01.534Z,99.90
2018-06-23T04:21:31.712Z,99.90
2018-06-23T04:24:01.189Z,99.90
2018-06-23T04:26:30.759Z,99.90
2018-06-23T04:29:00.698Z,99.90
2018-06-23T04:31:30.017Z,99.90
2018-06-23T04:33:59.256Z,99.90
2018-06-23T04:36:28.919Z,99.90
2018-06-23T04:41:27.166Z,99.90
2018-06-23T04:43:57.291Z,99.90
2018-06-23T04:46:26.622Z,99.90
2018-06-23T04:48:56.123Z,99.90
2018-06-23T04:53:54.691Z,99.90
2018-06-23T04:56:24.687Z,99.90
2018-06-23T04:58:54.361Z,99.90
2018-06-23T05:01:23.972Z,99.90
2018-06-23T05:03:54.737Z,99.90
2018-06-23T05:06:24.984Z,99.90
2018-06-23T05:08:54.931Z,99.90
2018-06-23T05:11:24.275Z,99.90
2018-06-23T05:13:55.127Z,99.90
2018-06-23T05:16:24.417Z,99.90
2018-06-23T05:18:53.986Z,99.90
2018-06-23T05:21:23.814Z,99.90
2018-06-23T05:23:53.135Z,99.90
2018-06-23T05:26:22.853Z,99.90
2018-06-23T05:28:52.461Z,99.90
2018-06-23T05:31:21.997Z,99.90
2018-06-23T05:33:51.496Z,99.90
2018-06-23T05:36:21.103Z,99.90
2018-06-23T05:38:50.486Z,99.90
2018-06-23T05:41:20.151Z,99.90
2018-06-23T05:43:49.962Z,99.90
2018-06-23T05:48:49.315Z,99.90
2018-06-23T05:51:20.558Z,99.90
2018-06-23T05:53:49.786Z,99.90
2018-06-23T05:56:25.624Z,99.90
2018-06-23T06:01:52.435Z,99.90
2018-06-23T06:06:51.287Z,99.90
2018-06-23T06:09:20.649Z,99.90
2018-06-23T06:11:50.360Z,99.90
2018-06-23T06:14:21.127Z,99.90
2018-06-23T06:17:54.253Z,99.90
2018-06-23T06:20:24.201Z,99.90
2018-06-23T06:22:54.884Z,99.90
2018-06-23T06:25:24.199Z,99.90
2018-06-23T06:30:23.463Z,99.90
2018-06-23T06:32:52.776Z,99.90
2018-06-23T06:35:22.149Z,99.90
2018-06-23T06:37:53.436Z,99.90
2018-06-23T06:42:52.496Z,99.90
2018-06-23T06:45:21.951Z,99.90
2018-06-23T06:48:04.262Z,99.90
2018-06-23T06:50:34.083Z,99.90
2018-06-23T06:53:04.172Z,99.90
2018-06-23T06:55:34.142Z,99.90
2018-06-23T06:58:05.029Z,99.90
2018-06-23T07:00:35.512Z,99.90
2018-06-23T07:03:04.936Z,99.90
2018-06-23T07:05:34.767Z,99.90
2018-06-23T07:08:04.285Z,99.90
2018-06-23T07:10:35.587Z,99.90
2018-06-23T07:13:05.356Z,99.90
2018-06-23T07:15:34.761Z,99.90
2018-06-23T07:20:34.405Z,99.90
2018-06-23T07:23:03.916Z,99.90
2018-06-23T07:25:37.172Z,99.90
2018-06-23T07:28:07.939Z,99.90
2018-06-23T07:30:37.532Z,99.90
2018-06-23T07:33:07.001Z,99.90
2018-06-23T07:35:36.871Z,99.90
2018-06-23T07:38:06.261Z,99.90
2018-06-23T07:40:35.669Z,99.90
2018-06-23T07:50:37.107Z,99.90
2018-06-23T07:53:07.219Z,99.90
2018-06-23T07:55:44.789Z,99.90
2018-06-23T07:58:15.426Z,99.90
2018-06-23T08:00:46.614Z,99.90
2018-06-23T08:05:45.171Z,99.90
2018-06-23T08:08:14.833Z,99.90
2018-06-23T08:10:45.870Z,99.90
2018-06-23T08:13:16.397Z,99.90
2018-06-23T08:15:45.755Z,99.90
2018-06-23T08:18:15.040Z,99.90
2018-06-23T08:20:44.741Z,99.90
2018-06-23T08:25:43.189Z,99.90
2018-06-23T08:28:12.839Z,99.90
2018-06-23T08:31:07.340Z,99.90
2018-06-23T08:33:39.473Z,99.90
2018-06-23T08:36:08.767Z,99.90
2018-06-23T08:38:38.101Z,99.90
2018-06-23T08:41:08.009Z,99.90
2018-06-23T08:43:37.475Z,99.90
2018-06-23T08:46:34.176Z,99.90
2018-06-23T08:49:03.843Z,98.10
2018-06-23T08:51:33.513Z,96.20
2018-06-23T08:54:03.044Z,96.50
2018-06-23T08:56:32.828Z,99.40
2018-06-23T08:59:02.643Z,99.90
2018-06-23T09:01:32.667Z,99.90
2018-06-23T09:04:05.214Z,99.90
2018-06-23T09:06:34.666Z,99.90
2018-06-23T09:09:06.157Z,99.90
2018-06-23T09:11:36.663Z,99.90
2018-06-23T09:16:47.458Z,99.90
2018-06-23T09:19:19.107Z,99.90
2018-06-23T09:24:17.994Z,99.90
2018-06-23T09:26:49.455Z,99.90
2018-06-23T09:29:38.356Z,99.90
2018-06-23T09:34:38.712Z,98.10
2018-06-23T09:37:07.980Z,94.90
2018-06-23T09:39:38.197Z,96.90
2018-06-23T09:42:11.883Z,98.10
2018-06-23T09:44:41.984Z,99.90
2018-06-23T09:47:11.947Z,97.70
2018-06-23T09:49:46.610Z,92.00
2018-06-23T09:52:26.077Z,91.60
2018-06-23T09:55:03.603Z,93.20
2018-06-23T09:58:12.732Z,96.20
2018-06-23T10:00:45.788Z,96.60
2018-06-23T10:13:22.611Z,96.40
2018-06-23T10:16:17.449Z,95.80
2018-06-23T10:19:03.987Z,96.00
2018-06-23T10:21:47.982Z,95.10
2018-06-23T10:24:21.370Z,96.40
2018-06-23T10:26:51.346Z,97.70
2018-06-23T10:29:21.135Z,95.80
2018-06-23T10:31:51.568Z,96.30
2018-06-23T10:34:21.834Z,97.00
2018-06-23T10:37:01.771Z,95.40
2018-06-23T10:39:31.975Z,94.70
2018-06-23T10:42:03.984Z,92.20
2018-06-23T10:44:34.595Z,91.70
2018-06-23T10:47:07.285Z,91.00
2018-06-23T10:52:16.741Z,92.80
2018-06-23T10:54:51.878Z,91.70
2018-06-23T10:59:53.470Z,88.70
2018-06-23T11:02:52.239Z,88.30
2018-06-23T11:05:26.810Z,91.00
2018-06-23T11:07:56.327Z,93.10
2018-06-23T11:10:26.364Z,92.50
2018-06-23T11:12:56.406Z,88.90
2018-06-23T11:15:44.365Z,90.60
2018-06-23T11:20:57.684Z,86.60
2018-06-23T11:23:28.973Z,81.70
2018-06-23T11:25:59.504Z,83.10
2018-06-23T11:32:10.495Z,80.80
2018-06-23T11:40:15.252Z,90.20
2018-06-23T11:42:45.371Z,89.40
2018-06-23T11:45:15.737Z,90.00
2018-06-23T11:47:45.492Z,87.60
2018-06-23T11:50:15.251Z,91.60
2018-06-23T11:52:45.533Z,89.10
2018-06-23T11:55:58.890Z,89.40
2018-06-23T11:58:38.639Z,91.10
2018-06-23T12:01:08.234Z,90.80
2018-06-23T12:03:39.957Z,90.10
2018-06-23T12:06:10.024Z,89.50
2018-06-23T12:08:40.335Z,92.00
2018-06-23T12:14:57.269Z,91.10
2018-06-23T12:17:26.804Z,87.20
2018-06-23T12:20:12.886Z,89.60
2018-06-23T12:22:42.401Z,86.30
2018-06-23T12:25:12.276Z,90.90
2018-06-23T12:27:47.543Z,92.20
2018-06-23T12:30:17.961Z,90.40
2018-06-23T12:32:51.166Z,90.70
2018-06-23T12:43:44.667Z,90.90
2018-06-23T12:46:14.908Z,90.40
2018-06-23T12:48:45.716Z,91.50
2018-06-23T12:51:15.212Z,91.60
2018-06-23T12:53:45.520Z,91.90
2018-06-23T12:56:25.801Z,91.80
2018-06-23T13:01:25.175Z,89.50
2018-06-23T13:04:00.174Z,91.60
2018-06-23T13:06:29.958Z,90.00
2018-06-23T13:08:59.721Z,91.10
2018-06-23T13:11:29.067Z,90.80
2018-06-23T13:14:00.687Z,91.30
2018-06-23T13:20:08.548Z,89.80
2018-06-23T13:22:38.905Z,92.40
2018-06-23T13:25:12.129Z,91.50
2018-06-23T13:27:41.420Z,90.60
2018-06-23T13:30:12.701Z,91.00
2018-06-23T13:32:44.465Z,91.30
2018-06-23T13:35:14.179Z,91.90
2018-06-23T13:37:46.600Z,91.70
2018-06-23T13:40:18.379Z,91.40
2018-06-23T13:42:48.310Z,91.10
2018-06-23T13:45:43.508Z,91.20
2018-06-23T13:48:13.406Z,91.20
2018-06-23T13:53:16.126Z,86.30
2018-06-23T13:55:46.329Z,86.00
2018-06-23T13:58:15.967Z,90.10
2018-06-23T14:00:45.611Z,92.10
2018-06-23T14:03:16.195Z,91.30
2018-06-23T14:06:07.117Z,92.70
2018-06-23T14:08:38.409Z,91.20
2018-06-23T14:11:07.993Z,90.80
2018-06-23T14:13:39.129Z,90.80
2018-06-23T14:16:08.889Z,91.00
2018-06-23T14:18:38.415Z,89.60
2018-06-23T14:23:37.584Z,92.30
2018-06-23T14:26:14.546Z,90.20
2018-06-23T14:28:43.944Z,91.90
2018-06-23T14:31:30.037Z,89.80
2018-06-23T14:33:59.375Z,90.40
2018-06-23T14:38:11.947Z,89.30
2018-06-23T14:40:41.363Z,88.80
2018-06-23T14:43:10.903Z,90.10
2018-06-23T14:45:42.464Z,90.70
2018-06-23T14:48:11.753Z,89.20
2018-06-23T14:50:41.368Z,91.60
2018-06-23T14:53:39.922Z,91.20
2018-06-23T14:56:09.666Z,92.00
2018-06-23T14:59:03.899Z,90.40
2018-06-23T15:01:39.777Z,90.40
2018-06-23T15:04:16.353Z,89.60
2018-06-23T15:06:46.248Z,91.50
2018-06-23T15:12:59.465Z,90.80
2018-06-23T15:15:29.252Z,90.50
2018-06-23T15:17:58.598Z,90.70
2018-06-23T15:20:34.520Z,91.30
2018-06-23T15:23:08.113Z,90.00
2018-06-23T15:25:44.580Z,90.90
2018-06-23T15:28:16.095Z,89.00
2018-06-23T15:30:46.877Z,90.80
2018-06-23T15:33:17.869Z,87.50
2018-06-23T15:35:47.431Z,90.30
2018-06-23T15:38:20.748Z,91.30
2018-06-23T15:40:50.028Z,92.90
2018-06-23T15:43:21.119Z,91.40
2018-06-23T15:45:50.659Z,91.00
2018-06-23T15:48:20.084Z,90.50
2018-06-23T15:50:50.574Z,91.20
2018-06-23T15:53:20.155Z,90.60
2018-06-23T15:55:50.788Z,90.70
2018-06-23T15:58:22.494Z,91.20
2018-06-23T16:00:51.807Z,90.30
2018-06-23T16:03:21.415Z,91.80
2018-06-23T16:05:51.557Z,90.80
2018-06-23T16:08:23.259Z,91.20
2018-06-23T16:10:52.977Z,92.00
2018-06-23T16:13:22.787Z,93.00
2018-06-23T16:15:52.167Z,93.50
2018-06-23T16:18:21.608Z,92.10
2018-06-23T16:20:52.380Z,91.70
2018-06-23T16:23:22.208Z,95.10
2018-06-23T16:25:52.771Z,94.70
2018-06-23T16:28:22.726Z,90.90
2018-06-23T16:30:55.160Z,93.40
2018-06-23T16:34:03.433Z,95.40
2018-06-23T16:36:38.023Z,93.40
2018-06-23T16:39:09.417Z,94.50
2018-06-23T16:41:42.220Z,94.50
2018-06-23T16:44:11.622Z,93.00
2018-06-23T16:46:40.881Z,93.80
2018-06-23T16:49:16.078Z,93.00
2018-06-23T16:51:47.372Z,93.40
2018-06-23T16:54:16.788Z,94.00
2018-06-23T16:56:46.399Z,92.30
2018-06-23T16:59:15.688Z,92.30
2018-06-23T17:01:45.055Z,93.90
2018-06-23T17:04:16.138Z,94.10
2018-06-23T17:06:45.533Z,94.20
2018-06-23T17:09:17.895Z,92.40
2018-06-23T17:11:49.252Z,93.00
2018-06-23T17:14:18.724Z,93.90
2018-06-23T17:16:48.566Z,93.60
2018-06-23T17:19:18.810Z,93.50
2018-06-23T17:21:48.256Z,94.00
2018-06-23T17:24:17.570Z,93.60
2018-06-23T17:26:54.401Z,95.90
2018-06-23T17:29:28.224Z,95.70
2018-06-23T17:31:58.676Z,94.60
2018-06-23T17:34:28.099Z,94.60
2018-06-23T17:36:57.707Z,94.00
2018-06-23T17:39:28.829Z,94.70
2018-06-23T17:41:58.769Z,94.20
2018-06-23T17:44:28.110Z,94.90
2018-06-23T17:47:01.875Z,95.00
2018-06-23T17:49:32.190Z,95.40
2018-06-23T17:52:01.780Z,96.50
2018-06-23T17:54:33.034Z,95.80
2018-06-23T17:57:03.047Z,95.30
2018-06-23T17:59:32.901Z,96.40
2018-06-23T18:02:02.256Z,97.50
2018-06-23T18:04:31.857Z,96.00
2018-06-23T18:07:01.669Z,95.90
2018-06-23T18:09:31.463Z,97.00
2018-06-23T18:12:01.103Z,97.30
2018-06-23T18:14:30.940Z,97.60
2018-06-23T18:17:00.231Z,96.60
2018-06-23T18:19:29.646Z,97.50
2018-06-23T18:21:59.770Z,99.50
2018-06-23T18:24:29.315Z,99.90
2018-06-23T18:26:59.090Z,99.90
2018-06-23T18:29:30.616Z,99.90
2018-06-23T18:32:00.741Z,99.90
2018-06-23T18:34:30.945Z,99.90
2018-06-23T18:37:00.462Z,99.90
2018-06-23T18:39:30.045Z,99.90
2018-06-23T18:42:05.187Z,99.90
2018-06-23T18:44:36.170Z,99.90
2018-06-23T18:47:05.499Z,99.90
2018-06-23T18:49:35.552Z,99.90
2018-06-23T18:52:05.220Z,99.90
2018-06-23T18:54:34.555Z,99.90
2018-06-23T18:57:04.525Z,99.90
2018-06-23T18:59:33.854Z,99.90
2018-06-23T19:02:03.966Z,99.90
2018-06-23T19:04:33.882Z,99.90
2018-06-23T19:07:03.534Z,99.90
2018-06-23T19:09:32.888Z,99.90
2018-06-23T19:12:02.620Z,99.90
2018-06-23T19:14:32.274Z,99.90
2018-06-23T19:17:01.828Z,99.90
2018-06-23T19:19:31.761Z,99.90
2018-06-23T19:22:02.264Z,99.90
2018-06-23T19:24:31.547Z,99.90
2018-06-23T19:27:01.300Z,99.90
2018-06-23T19:29:30.663Z,99.90
2018-06-23T19:32:11.494Z,99.90
2018-06-23T19:37:10.771Z,99.90
2018-06-23T19:39:40.508Z,99.90
2018-06-23T19:42:10.269Z,99.90
2018-06-23T19:44:39.693Z,99.90
2018-06-23T19:47:10.258Z,99.90
2018-06-23T19:49:40.265Z,99.90
2018-06-23T19:52:09.617Z,99.90
2018-06-23T19:54:39.456Z,99.90
2018-06-23T19:57:09.593Z,99.90
2018-06-23T19:59:39.207Z,99.90
2018-06-23T20:04:38.400Z,99.90
2018-06-23T20:07:08.779Z,99.90
2018-06-23T20:09:38.203Z,99.90
2018-06-23T20:12:07.904Z,99.90
2018-06-23T20:14:37.558Z,99.90
2018-06-23T20:17:06.940Z,99.90
2018-06-23T20:19:36.607Z,99.90
2018-06-23T20:22:06.393Z,99.90
2018-06-23T20:27:05.393Z,99.90
2018-06-23T20:29:35.222Z,99.90
2018-06-23T20:32:06.597Z,99.90
2018-06-23T20:34:36.429Z,99.90
2018-06-23T20:37:05.782Z,99.90
2018-06-23T20:39:36.756Z,99.90
2018-06-23T20:42:07.328Z,99.90
2018-06-23T20:44:36.623Z,99.90
2018-06-23T20:47:06.147Z,99.90
2018-06-23T20:49:36.105Z,99.90
2018-06-23T20:52:05.361Z,99.90
2018-06-23T20:54:34.708Z,99.90
2018-06-23T20:57:05.114Z,99.90
2018-06-23T20:59:34.904Z,99.90
2018-06-23T21:02:09.859Z,99.90
2018-06-23T21:04:39.823Z,99.90
2018-06-23T21:07:13.755Z,99.90
2018-06-23T21:09:43.419Z,99.90
2018-06-23T21:12:13.848Z,99.90
2018-06-23T21:14:44.209Z,99.90
2018-06-23T21:17:15.061Z,99.90
2018-06-23T21:19:46.244Z,99.90
2018-06-23T21:22:15.796Z,99.90
2018-06-23T21:24:51.603Z,99.90
2018-06-23T21:29:52.859Z,99.90
2018-06-23T21:32:24.773Z,99.90
2018-06-23T21:34:59.339Z,99.90
2018-06-23T21:37:30.092Z,99.90
2018-06-23T21:40:00.566Z,99.90
2018-06-23T21:42:31.467Z,99.90
2018-06-23T21:45:05.231Z,99.90
2018-06-23T21:47:35.654Z,99.90
2018-06-23T21:50:07.734Z,99.90
2018-06-23T21:52:38.041Z,99.90
2018-06-23T21:55:09.295Z,99.90
2018-06-23T21:57:43.432Z,99.90
2018-06-23T22:00:33.533Z,99.90
2018-06-23T22:03:05.527Z,99.90
2018-06-23T22:05:35.830Z,99.90
2018-06-23T22:08:05.894Z,99.90
2018-06-23T22:10:38.336Z,99.90
2018-06-23T22:13:08.181Z,99.90
2018-06-23T22:15:37.474Z,99.90
2018-06-23T22:18:07.110Z,99.90
2018-06-23T22:20:36.852Z,99.90
2018-06-23T22:23:06.155Z,99.90
2018-06-23T22:25:35.413Z,99.90
2018-06-23T22:28:05.524Z,99.90
2018-06-23T22:30:34.790Z,99.90
2018-06-23T22:33:04.142Z,99.90
2018-06-23T22:35:33.828Z,99.90
2018-06-23T22:38:03.144Z,99.90
2018-06-23T22:40:32.552Z,99.90
2018-06-23T22:43:02.549Z,99.90
2018-06-23T22:45:33.552Z,99.90
2018-06-23T22:48:03.498Z,99.90
2018-06-23T22:50:33.878Z,99.90
2018-06-23T22:53:05.963Z,99.90
2018-06-23T22:55:36.207Z,99.90
2018-06-23T22:58:07.157Z,99.90
2018-06-23T23:00:36.423Z,99.90
2018-06-23T23:03:06.545Z,99.90
2018-06-23T23:05:37.969Z,99.90
2018-06-23T23:08:07.583Z,99.90
2018-06-23T23:10:36.901Z,99.90
2018-06-23T23:13:07.367Z,99.90
2018-06-23T23:15:36.616Z,99.90
2018-06-23T23:20:37.384Z,99.90
2018-06-23T23:23:06.656Z,99.90
2018-06-23T23:25:36.849Z,99.90
2018-06-23T23:28:06.484Z,99.90
2018-06-23T23:30:36.083Z,99.90
2018-06-23T23:33:05.487Z,99.90
2018-06-23T23:35:35.281Z,99.90
2018-06-23T23:38:04.617Z,99.90
2018-06-23T23:40:34.210Z,99.90
2018-06-23T23:43:03.748Z,99.90
2018-06-23T23:45:33.183Z,99.90
2018-06-23T23:48:02.538Z,99.90
2018-06-23T23:50:32.548Z,99.90
2018-06-23T23:53:01.855Z,99.90
2018-06-23T23:55:31.212Z,99.90
2018-06-23T23:58:00.763Z,99.90
